sensor_id;sensor_type;location;lat;lon;timestamp;pressure;altitude;pressure_sealevel;temperature;humidity
45275;BME280;31019;43.780;25.948;2023-11-21T00:02:26;100892.69;;;5.00;100.00
45275;BME280;31019;43.780;25.948;2023-11-21T00:04:53;100892.00;;;4.98;100.00
45275;BME280;31019;43.780;25.948;2023-11-21T00:07:20;100897.75;;;4.69;100.00
45275;BME280;31019;43.780;25.948;2023-11-21T00:09:48;100888.41;;;4.66;100.00
45275;BME280;31019;43.780;25.948;2023-11-21T00:12:15;100894.81;;;4.80;100.00
45275;BME280;31019;43.780;25.948;2023-11-21T00:14:43;100884.09;;;4.90;100.00
45275;BME280;31019;43.780;25.948;2023-11-21T00:17:10;100890.69;;;4.69;100.00
45275;BME280;31019;43.780;25.948;2023-11-21T00:19:37;100890.50;;;4.54;100.00
45275;BME280;31019;43.780;25.948;2023-11-21T00:22:04;100894.75;;;4.39;100.00
45275;BME280;31019;43.780;25.948;2023-11-21T00:24:32;100899.91;;;4.06;100.00
45275;BME280;31019;43.780;25.948;2023-11-21T00:26:58;100902.69;;;3.97;100.00
45275;BME280;31019;43.780;25.948;2023-11-21T00:29:25;100894.47;;;4.00;100.00
45275;BME280;31019;43.780;25.948;2023-11-21T00:31:56;100907.75;;;3.98;100.00
45275;BME280;31019;43.780;25.948;2023-11-21T00:34:25;100902.38;;;4.00;100.00
45275;BME280;31019;43.780;25.948;2023-11-21T00:36:52;100905.81;;;4.08;100.00
45275;BME280;31019;43.780;25.948;2023-11-21T00:39:19;100896.16;;;4.09;100.00
45275;BME280;31019;43.780;25.948;2023-11-21T00:41:46;100892.47;;;3.94;100.00
45275;BME280;31019;43.780;25.948;2023-11-21T00:44:13;100885.88;;;3.81;100.00
45275;BME280;31019;43.780;25.948;2023-11-21T00:46:41;100891.56;;;3.77;100.00
45275;BME280;31019;43.780;25.948;2023-11-21T00:49:10;100900.69;;;3.90;100.00
45275;BME280;31019;43.780;25.948;2023-11-21T00:51:37;100879.75;;;3.81;100.00
45275;BME280;31019;43.780;25.948;2023-11-21T00:54:04;100879.03;;;3.62;100.00
45275;BME280;31019;43.780;25.948;2023-11-21T00:56:32;100891.34;;;4.04;100.00
45275;BME280;31019;43.780;25.948;2023-11-21T00:58:59;100892.22;;;4.13;100.00
45275;BME280;31019;43.780;25.948;2023-11-21T01:01:26;100900.97;;;4.38;100.00
45275;BME280;31019;43.780;25.948;2023-11-21T01:03:53;100880.25;;;4.19;100.00
45275;BME280;31019;43.780;25.948;2023-11-21T01:06:22;100891.44;;;3.86;100.00
45275;BME280;31019;43.780;25.948;2023-11-21T01:08:48;100893.03;;;4.13;100.00
45275;BME280;31019;43.780;25.948;2023-11-21T01:11:15;100888.84;;;4.45;100.00
45275;BME280;31019;43.780;25.948;2023-11-21T01:13:43;100879.75;;;4.15;100.00
45275;BME280;31019;43.780;25.948;2023-11-21T01:16:10;100887.09;;;4.03;100.00
45275;BME280;31019;43.780;25.948;2023-11-21T01:18:37;100877.84;;;3.91;100.00
45275;BME280;31019;43.780;25.948;2023-11-21T01:21:04;100883.56;;;3.86;100.00
45275;BME280;31019;43.780;25.948;2023-11-21T01:23:34;100893.56;;;3.83;100.00
45275;BME280;31019;43.780;25.948;2023-11-21T01:26:01;100893.44;;;3.84;100.00
45275;BME280;31019;43.780;25.948;2023-11-21T01:28:48;100881.28;;;3.92;100.00
45275;BME280;31019;43.780;25.948;2023-11-21T01:31:28;100873.41;;;3.92;100.00
45275;BME280;31019;43.780;25.948;2023-11-21T01:33:55;100864.53;;;3.84;100.00
45275;BME280;31019;43.780;25.948;2023-11-21T01:36:22;100854.09;;;3.66;100.00
45275;BME280;31019;43.780;25.948;2023-11-21T01:38:53;100850.53;;;3.76;100.00
45275;BME280;31019;43.780;25.948;2023-11-21T01:41:20;100847.75;;;3.43;100.00
45275;BME280;31019;43.780;25.948;2023-11-21T01:43:47;100845.00;;;3.53;100.00
45275;BME280;31019;43.780;25.948;2023-11-21T01:46:14;100850.75;;;3.56;100.00
45275;BME280;31019;43.780;25.948;2023-11-21T01:48:41;100857.69;;;3.65;100.00
45275;BME280;31019;43.780;25.948;2023-11-21T01:51:08;100857.19;;;3.36;100.00
45275;BME280;31019;43.780;25.948;2023-11-21T01:53:35;100854.56;;;3.36;100.00
45275;BME280;31019;43.780;25.948;2023-11-21T01:56:04;100859.78;;;3.28;100.00
45275;BME280;31019;43.780;25.948;2023-11-21T01:58:33;100863.94;;;3.38;100.00
45275;BME280;31019;43.780;25.948;2023-11-21T02:01:00;100861.69;;;3.17;100.00
45275;BME280;31019;43.780;25.948;2023-11-21T02:03:27;100862.84;;;3.15;100.00
45275;BME280;31019;43.780;25.948;2023-11-21T02:05:57;100854.34;;;3.21;100.00
45275;BME280;31019;43.780;25.948;2023-11-21T02:08:24;100847.41;;;3.12;100.00
45275;BME280;31019;43.780;25.948;2023-11-21T02:14:28;100857.28;;;3.18;100.00
45275;BME280;31019;43.780;25.948;2023-11-21T02:16:58;100853.91;;;3.08;100.00
45275;BME280;31019;43.780;25.948;2023-11-21T02:19:27;100851.38;;;2.98;100.00
45275;BME280;31019;43.780;25.948;2023-11-21T02:25:48;100861.13;;;3.06;100.00
45275;BME280;31019;43.780;25.948;2023-11-21T02:28:15;100854.38;;;3.03;100.00
45275;BME280;31019;43.780;25.948;2023-11-21T02:30:51;100850.19;;;2.92;100.00
45275;BME280;31019;43.780;25.948;2023-11-21T02:33:22;100853.31;;;3.14;100.00
45275;BME280;31019;43.780;25.948;2023-11-21T02:35:55;100852.38;;;3.23;100.00
45275;BME280;31019;43.780;25.948;2023-11-21T02:38:22;100856.88;;;2.87;100.00
45275;BME280;31019;43.780;25.948;2023-11-21T02:40:51;100844.56;;;2.87;100.00
45275;BME280;31019;43.780;25.948;2023-11-21T02:43:18;100845.34;;;2.80;100.00
45275;BME280;31019;43.780;25.948;2023-11-21T02:45:45;100851.19;;;2.91;100.00
45275;BME280;31019;43.780;25.948;2023-11-21T02:48:12;100843.53;;;2.80;100.00
45275;BME280;31019;43.780;25.948;2023-11-21T02:50:52;100837.91;;;2.75;100.00
45275;BME280;31019;43.780;25.948;2023-11-21T02:53:19;100843.16;;;2.93;100.00
45275;BME280;31019;43.780;25.948;2023-11-21T02:55:46;100848.09;;;2.96;100.00
45275;BME280;31019;43.780;25.948;2023-11-21T03:01:40;100850.81;;;2.86;100.00
45275;BME280;31019;43.780;25.948;2023-11-21T03:04:07;100854.13;;;2.88;100.00
45275;BME280;31019;43.780;25.948;2023-11-21T03:06:34;100850.47;;;3.07;100.00
45275;BME280;31019;43.780;25.948;2023-11-21T03:09:36;100847.28;;;2.95;100.00
45275;BME280;31019;43.780;25.948;2023-11-21T03:12:54;100847.75;;;2.91;100.00
45275;BME280;31019;43.780;25.948;2023-11-21T03:15:22;100843.56;;;2.62;100.00
45275;BME280;31019;43.780;25.948;2023-11-21T03:17:51;100847.59;;;2.74;100.00
45275;BME280;31019;43.780;25.948;2023-11-21T03:20:18;100844.75;;;2.68;100.00
45275;BME280;31019;43.780;25.948;2023-11-21T03:22:45;100852.84;;;2.74;100.00
45275;BME280;31019;43.780;25.948;2023-11-21T03:25:12;100850.66;;;2.88;100.00
45275;BME280;31019;43.780;25.948;2023-11-21T03:27:38;100850.81;;;2.86;100.00
45275;BME280;31019;43.780;25.948;2023-11-21T03:30:09;100851.22;;;2.73;100.00
45275;BME280;31019;43.780;25.948;2023-11-21T03:32:36;100857.66;;;2.79;100.00
45275;BME280;31019;43.780;25.948;2023-11-21T03:35:05;100845.44;;;2.88;100.00
45275;BME280;31019;43.780;25.948;2023-11-21T03:37:32;100859.88;;;2.92;100.00
45275;BME280;31019;43.780;25.948;2023-11-21T03:39:59;100863.78;;;2.88;100.00
45275;BME280;31019;43.780;25.948;2023-11-21T03:42:26;100851.91;;;3.02;100.00
45275;BME280;31019;43.780;25.948;2023-11-21T03:44:55;100850.00;;;2.86;100.00
45275;BME280;31019;43.780;25.948;2023-11-21T03:47:22;100844.63;;;2.69;100.00
45275;BME280;31019;43.780;25.948;2023-11-21T03:49:49;100864.75;;;2.69;100.00
45275;BME280;31019;43.780;25.948;2023-11-21T03:52:18;100870.38;;;2.74;100.00
45275;BME280;31019;43.780;25.948;2023-11-21T03:54:45;100864.84;;;2.59;100.00
45275;BME280;31019;43.780;25.948;2023-11-21T03:57:12;100866.44;;;2.70;100.00
45275;BME280;31019;43.780;25.948;2023-11-21T03:59:40;100865.06;;;2.66;100.00
45275;BME280;31019;43.780;25.948;2023-11-21T04:02:07;100864.91;;;2.49;100.00
45275;BME280;31019;43.780;25.948;2023-11-21T04:04:34;100865.06;;;2.48;100.00
45275;BME280;31019;43.780;25.948;2023-11-21T04:07:02;100863.09;;;2.32;100.00
45275;BME280;31019;43.780;25.948;2023-11-21T04:09:31;100862.19;;;2.23;100.00
45275;BME280;31019;43.780;25.948;2023-11-21T04:11:58;100862.84;;;2.08;100.00
45275;BME280;31019;43.780;25.948;2023-11-21T04:14:25;100867.16;;;2.26;100.00
45275;BME280;31019;43.780;25.948;2023-11-21T04:16:52;100867.16;;;2.26;100.00
45275;BME280;31019;43.780;25.948;2023-11-21T04:19:19;100867.06;;;2.18;100.00
45275;BME280;31019;43.780;25.948;2023-11-21T04:21:46;100861.28;;;2.15;100.00
45275;BME280;31019;43.780;25.948;2023-11-21T04:24:13;100864.75;;;2.51;100.00
45275;BME280;31019;43.780;25.948;2023-11-21T04:26:41;100869.94;;;2.43;100.00
45275;BME280;31019;43.780;25.948;2023-11-21T04:29:08;100851.72;;;2.77;100.00
45275;BME280;31019;43.780;25.948;2023-11-21T04:31:35;100861.78;;;2.64;100.00
45275;BME280;31019;43.780;25.948;2023-11-21T04:34:02;100864.22;;;2.83;100.00
45275;BME280;31019;43.780;25.948;2023-11-21T04:36:30;100851.81;;;2.67;100.00
45275;BME280;31019;43.780;25.948;2023-11-21T04:38:57;100871.88;;;2.94;100.00
45275;BME280;31019;43.780;25.948;2023-11-21T04:41:24;100872.31;;;2.90;100.00
45275;BME280;31019;43.780;25.948;2023-11-21T04:43:52;100873.38;;;2.97;100.00
45275;BME280;31019;43.780;25.948;2023-11-21T04:46:19;100865.53;;;2.61;100.00
45275;BME280;31019;43.780;25.948;2023-11-21T04:48:47;100876.41;;;2.48;100.00
45275;BME280;31019;43.780;25.948;2023-11-21T04:51:14;100879.00;;;2.31;100.00
45275;BME280;31019;43.780;25.948;2023-11-21T04:53:41;100889.09;;;2.25;100.00
45275;BME280;31019;43.780;25.948;2023-11-21T04:56:08;100873.84;;;2.11;100.00
45275;BME280;31019;43.780;25.948;2023-11-21T04:58:35;100882.34;;;2.23;100.00
45275;BME280;31019;43.780;25.948;2023-11-21T05:01:03;100876.13;;;2.06;100.00
45275;BME280;31019;43.780;25.948;2023-11-21T05:03:31;100879.78;;;2.13;100.00
45275;BME280;31019;43.780;25.948;2023-11-21T05:05:57;100885.25;;;2.20;100.00
45275;BME280;31019;43.780;25.948;2023-11-21T05:08:26;100880.53;;;2.23;100.00
45275;BME280;31019;43.780;25.948;2023-11-21T05:10:52;100879.63;;;2.15;100.00
45275;BME280;31019;43.780;25.948;2023-11-21T05:13:20;100878.88;;;2.04;100.00
45275;BME280;31019;43.780;25.948;2023-11-21T05:15:47;100880.78;;;2.02;100.00
45275;BME280;31019;43.780;25.948;2023-11-21T05:18:15;100886.09;;;1.93;100.00
45275;BME280;31019;43.780;25.948;2023-11-21T05:21:07;100879.72;;;2.23;100.00
45275;BME280;31019;43.780;25.948;2023-11-21T05:23:57;100876.06;;;1.88;100.00
45275;BME280;31019;43.780;25.948;2023-11-21T05:26:24;100875.38;;;1.86;100.00
45275;BME280;31019;43.780;25.948;2023-11-21T05:28:51;100888.00;;;1.63;100.00
45275;BME280;31019;43.780;25.948;2023-11-21T05:31:18;100877.00;;;1.87;100.00
45275;BME280;31019;43.780;25.948;2023-11-21T05:33:47;100874.38;;;1.97;100.00
45275;BME280;31019;43.780;25.948;2023-11-21T05:36:14;100879.34;;;1.90;100.00
45275;BME280;31019;43.780;25.948;2023-11-21T05:38:41;100876.41;;;2.03;100.00
45275;BME280;31019;43.780;25.948;2023-11-21T05:41:08;100882.22;;;2.24;100.00
45275;BME280;31019;43.780;25.948;2023-11-21T05:43:36;100885.81;;;2.41;100.00
45275;BME280;31019;43.780;25.948;2023-11-21T05:46:03;100888.22;;;2.52;100.00
45275;BME280;31019;43.780;25.948;2023-11-21T05:48:31;100883.41;;;2.48;100.00
45275;BME280;31019;43.780;25.948;2023-11-21T05:50:59;100892.66;;;2.70;100.00
45275;BME280;31019;43.780;25.948;2023-11-21T05:53:27;100898.50;;;2.64;100.00
45275;BME280;31019;43.780;25.948;2023-11-21T05:55:54;100891.34;;;2.38;100.00
45275;BME280;31019;43.780;25.948;2023-11-21T05:58:21;100902.28;;;2.34;100.00
45275;BME280;31019;43.780;25.948;2023-11-21T06:00:48;100907.03;;;2.84;100.00
45275;BME280;31019;43.780;25.948;2023-11-21T06:03:15;100902.63;;;3.28;100.00
45275;BME280;31019;43.780;25.948;2023-11-21T06:05:42;100915.19;;;3.42;100.00
45275;BME280;31019;43.780;25.948;2023-11-21T06:08:11;100912.03;;;3.65;100.00
45275;BME280;31019;43.780;25.948;2023-11-21T06:10:38;100918.16;;;3.74;100.00
45275;BME280;31019;43.780;25.948;2023-11-21T06:13:06;100913.72;;;4.08;100.00
45275;BME280;31019;43.780;25.948;2023-11-21T06:15:33;100931.16;;;4.76;100.00
45275;BME280;31019;43.780;25.948;2023-11-21T06:18:00;100932.66;;;5.28;100.00
45275;BME280;31019;43.780;25.948;2023-11-21T06:20:27;100915.72;;;5.86;100.00
45275;BME280;31019;43.780;25.948;2023-11-21T06:22:54;100924.75;;;6.39;100.00
45275;BME280;31019;43.780;25.948;2023-11-21T06:25:23;100924.38;;;6.97;100.00
45275;BME280;31019;43.780;25.948;2023-11-21T06:27:50;100922.69;;;7.86;100.00
45275;BME280;31019;43.780;25.948;2023-11-21T06:30:19;100913.31;;;8.35;100.00
45275;BME280;31019;43.780;25.948;2023-11-21T06:32:47;100914.06;;;8.29;100.00
45275;BME280;31019;43.780;25.948;2023-11-21T06:42:05;100921.75;;;8.38;100.00
45275;BME280;31019;43.780;25.948;2023-11-21T06:44:32;100914.50;;;8.47;100.00
45275;BME280;31019;43.780;25.948;2023-11-21T06:47:01;100921.25;;;8.49;100.00
45275;BME280;31019;43.780;25.948;2023-11-21T06:50:10;100922.47;;;8.32;100.00
45275;BME280;31019;43.780;25.948;2023-11-21T06:52:46;100915.97;;;7.69;100.00
45275;BME280;31019;43.780;25.948;2023-11-21T06:55:47;100920.84;;;7.42;100.00
45275;BME280;31019;43.780;25.948;2023-11-21T06:58:15;100917.97;;;7.67;100.00
45275;BME280;31019;43.780;25.948;2023-11-21T07:15:00;100900.72;;;7.56;100.00
45275;BME280;31019;43.780;25.948;2023-11-21T07:17:28;100898.19;;;7.48;100.00
45275;BME280;31019;43.780;25.948;2023-11-21T07:19:54;100896.06;;;7.58;100.00
45275;BME280;31019;43.780;25.948;2023-11-21T07:22:21;100902.63;;;7.92;100.00
45275;BME280;31019;43.780;25.948;2023-11-21T07:24:48;100909.66;;;9.15;100.00
45275;BME280;31019;43.780;25.948;2023-11-21T07:27:16;100890.41;;;10.04;100.00
45275;BME280;31019;43.780;25.948;2023-11-21T07:29:43;100894.31;;;10.63;100.00
45275;BME280;31019;43.780;25.948;2023-11-21T07:32:12;100892.81;;;10.40;100.00
45275;BME280;31019;43.780;25.948;2023-11-21T07:34:40;100892.09;;;10.86;100.00
45275;BME280;31019;43.780;25.948;2023-11-21T07:37:07;100892.28;;;10.91;100.00
45275;BME280;31019;43.780;25.948;2023-11-21T07:39:35;100884.09;;;11.26;100.00
45275;BME280;31019;43.780;25.948;2023-11-21T07:42:02;100884.69;;;11.48;100.00
45275;BME280;31019;43.780;25.948;2023-11-21T07:44:29;100881.75;;;11.69;100.00
45275;BME280;31019;43.780;25.948;2023-11-21T07:46:56;100889.59;;;12.16;100.00
45275;BME280;31019;43.780;25.948;2023-11-21T07:59:35;100870.88;;;11.91;100.00
45275;BME280;31019;43.780;25.948;2023-11-21T08:02:02;100877.41;;;12.02;100.00
45275;BME280;31019;43.780;25.948;2023-11-21T08:04:29;100875.69;;;12.14;100.00
45275;BME280;31019;43.780;25.948;2023-11-21T08:06:57;100880.47;;;11.92;100.00
45275;BME280;31019;43.780;25.948;2023-11-21T08:09:24;100871.94;;;11.70;100.00
45275;BME280;31019;43.780;25.948;2023-11-21T08:11:51;100874.75;;;11.88;100.00
45275;BME280;31019;43.780;25.948;2023-11-21T08:14:18;100879.41;;;12.06;100.00
45275;BME280;31019;43.780;25.948;2023-11-21T08:16:47;100877.03;;;11.78;100.00
45275;BME280;31019;43.780;25.948;2023-11-21T08:19:14;100874.41;;;11.58;100.00
45275;BME280;31019;43.780;25.948;2023-11-21T08:21:41;100880.72;;;11.77;100.00
45275;BME280;31019;43.780;25.948;2023-11-21T08:24:08;100883.16;;;11.79;100.00
45275;BME280;31019;43.780;25.948;2023-11-21T08:26:36;100878.25;;;11.82;100.00
45275;BME280;31019;43.780;25.948;2023-11-21T08:29:03;100886.56;;;12.51;100.00
45275;BME280;31019;43.780;25.948;2023-11-21T08:31:32;100880.44;;;13.50;100.00
45275;BME280;31019;43.780;25.948;2023-11-21T08:34:00;100875.25;;;14.41;100.00
45275;BME280;31019;43.780;25.948;2023-11-21T08:36:28;100875.28;;;15.06;100.00
45275;BME280;31019;43.780;25.948;2023-11-21T08:38:57;100875.16;;;14.89;100.00
45275;BME280;31019;43.780;25.948;2023-11-21T08:41:23;100871.31;;;14.43;100.00
45275;BME280;31019;43.780;25.948;2023-11-21T08:43:52;100867.19;;;14.59;100.00
45275;BME280;31019;43.780;25.948;2023-11-21T08:46:20;100862.28;;;13.59;100.00
45275;BME280;31019;43.780;25.948;2023-11-21T08:48:48;100859.25;;;13.92;100.00
45275;BME280;31019;43.780;25.948;2023-11-21T08:51:19;100857.69;;;13.85;100.00
45275;BME280;31019;43.780;25.948;2023-11-21T08:53:46;100852.88;;;13.13;100.00
45275;BME280;31019;43.780;25.948;2023-11-21T08:56:13;100857.66;;;13.29;100.00
45275;BME280;31019;43.780;25.948;2023-11-21T08:58:40;100846.47;;;13.39;100.00
45275;BME280;31019;43.780;25.948;2023-11-21T09:01:08;100840.19;;;13.52;100.00
45275;BME280;31019;43.780;25.948;2023-11-21T09:03:35;100846.22;;;13.22;100.00
45275;BME280;31019;43.780;25.948;2023-11-21T09:06:02;100843.97;;;13.44;100.00
45275;BME280;31019;43.780;25.948;2023-11-21T09:08:31;100841.38;;;13.74;100.00
45275;BME280;31019;43.780;25.948;2023-11-21T09:10:58;100846.56;;;14.18;100.00
45275;BME280;31019;43.780;25.948;2023-11-21T09:13:25;100846.41;;;14.85;100.00
45275;BME280;31019;43.780;25.948;2023-11-21T09:15:52;100828.78;;;15.19;100.00
45275;BME280;31019;43.780;25.948;2023-11-21T09:18:19;100829.78;;;15.42;100.00
45275;BME280;31019;43.780;25.948;2023-11-21T09:20:45;100830.28;;;16.19;100.00
45275;BME280;31019;43.780;25.948;2023-11-21T09:23:12;100822.53;;;16.06;100.00
45275;BME280;31019;43.780;25.948;2023-11-21T09:25:41;100822.81;;;15.93;100.00
45275;BME280;31019;43.780;25.948;2023-11-21T09:28:11;100817.28;;;16.11;100.00
45275;BME280;31019;43.780;25.948;2023-11-21T09:30:38;100817.13;;;16.80;100.00
45275;BME280;31019;43.780;25.948;2023-11-21T09:33:05;100823.78;;;16.78;100.00
45275;BME280;31019;43.780;25.948;2023-11-21T09:35:34;100820.03;;;16.79;100.00
45275;BME280;31019;43.780;25.948;2023-11-21T09:38:01;100831.72;;;16.10;100.00
45275;BME280;31019;43.780;25.948;2023-11-21T09:40:31;100828.50;;;16.87;100.00
45275;BME280;31019;43.780;25.948;2023-11-21T09:43:00;100820.94;;;17.01;100.00
45275;BME280;31019;43.780;25.948;2023-11-21T09:45:35;100804.59;;;17.85;100.00
45275;BME280;31019;43.780;25.948;2023-11-21T09:48:02;100804.63;;;18.45;100.00
45275;BME280;31019;43.780;25.948;2023-11-21T09:50:32;100791.00;;;18.24;100.00
45275;BME280;31019;43.780;25.948;2023-11-21T09:53:07;100786.84;;;18.12;100.00
45275;BME280;31019;43.780;25.948;2023-11-21T09:55:42;100785.63;;;18.89;100.00
45275;BME280;31019;43.780;25.948;2023-11-21T09:58:11;100781.97;;;18.68;100.00
45275;BME280;31019;43.780;25.948;2023-11-21T10:00:40;100775.28;;;19.18;100.00
45275;BME280;31019;43.780;25.948;2023-11-21T10:03:07;100772.19;;;18.94;100.00
45275;BME280;31019;43.780;25.948;2023-11-21T10:05:35;100770.56;;;18.93;100.00
45275;BME280;31019;43.780;25.948;2023-11-21T10:08:03;100751.50;;;18.25;100.00
45275;BME280;31019;43.780;25.948;2023-11-21T10:10:32;100747.63;;;18.80;100.00
45275;BME280;31019;43.780;25.948;2023-11-21T10:13:02;100741.97;;;18.12;100.00
45275;BME280;31019;43.780;25.948;2023-11-21T10:15:34;100750.16;;;18.27;100.00
45275;BME280;31019;43.780;25.948;2023-11-21T10:18:06;100746.75;;;17.78;100.00
45275;BME280;31019;43.780;25.948;2023-11-21T10:20:34;100737.47;;;17.42;100.00
45275;BME280;31019;43.780;25.948;2023-11-21T10:23:03;100752.78;;;17.02;100.00
45275;BME280;31019;43.780;25.948;2023-11-21T10:25:33;100755.19;;;17.21;100.00
45275;BME280;31019;43.780;25.948;2023-11-21T10:28:03;100741.19;;;17.18;100.00
45275;BME280;31019;43.780;25.948;2023-11-21T10:30:34;100753.94;;;17.28;100.00
45275;BME280;31019;43.780;25.948;2023-11-21T10:33:03;100749.19;;;17.35;100.00
45275;BME280;31019;43.780;25.948;2023-11-21T10:35:46;100733.59;;;18.03;100.00
45275;BME280;31019;43.780;25.948;2023-11-21T10:38:16;100730.06;;;18.35;100.00
45275;BME280;31019;43.780;25.948;2023-11-21T10:40:43;100725.91;;;18.97;100.00
45275;BME280;31019;43.780;25.948;2023-11-21T10:43:12;100731.84;;;17.92;100.00
45275;BME280;31019;43.780;25.948;2023-11-21T10:45:42;100718.47;;;17.75;100.00
45275;BME280;31019;43.780;25.948;2023-11-21T10:48:14;100718.84;;;18.11;100.00
45275;BME280;31019;43.780;25.948;2023-11-21T10:50:42;100721.34;;;18.55;100.00
45275;BME280;31019;43.780;25.948;2023-11-21T10:53:10;100718.09;;;18.90;100.00
45275;BME280;31019;43.780;25.948;2023-11-21T10:55:38;100721.06;;;17.87;100.00
45275;BME280;31019;43.780;25.948;2023-11-21T10:58:06;100708.00;;;17.74;100.00
45275;BME280;31019;43.780;25.948;2023-11-21T11:00:37;100721.66;;;20.51;100.00
45275;BME280;31019;43.780;25.948;2023-11-21T11:03:08;100704.81;;;21.10;93.80
45275;BME280;31019;43.780;25.948;2023-11-21T11:05:40;100706.41;;;21.21;94.12
45275;BME280;31019;43.780;25.948;2023-11-21T11:08:17;100706.28;;;19.75;100.00
45275;BME280;31019;43.780;25.948;2023-11-21T11:10:45;100696.06;;;20.18;100.00
45275;BME280;31019;43.780;25.948;2023-11-21T11:13:13;100693.94;;;19.01;100.00
45275;BME280;31019;43.780;25.948;2023-11-21T11:15:41;100703.78;;;17.78;100.00
45275;BME280;31019;43.780;25.948;2023-11-21T11:18:11;100687.03;;;17.00;100.00
45275;BME280;31019;43.780;25.948;2023-11-21T11:20:39;100686.56;;;19.54;100.00
45275;BME280;31019;43.780;25.948;2023-11-21T11:23:24;100680.94;;;19.65;100.00
45275;BME280;31019;43.780;25.948;2023-11-21T11:26:06;100678.00;;;19.67;100.00
45275;BME280;31019;43.780;25.948;2023-11-21T11:28:42;100674.72;;;19.55;100.00
45275;BME280;31019;43.780;25.948;2023-11-21T11:31:27;100676.06;;;18.42;100.00
45275;BME280;31019;43.780;25.948;2023-11-21T11:34:11;100667.72;;;19.59;100.00
45275;BME280;31019;43.780;25.948;2023-11-21T11:36:46;100671.81;;;20.07;100.00
45275;BME280;31019;43.780;25.948;2023-11-21T11:39:27;100655.88;;;20.31;100.00
45275;BME280;31019;43.780;25.948;2023-11-21T11:41:56;100653.69;;;19.57;100.00
45275;BME280;31019;43.780;25.948;2023-11-21T11:44:47;100643.09;;;19.09;100.00
45275;BME280;31019;43.780;25.948;2023-11-21T11:47:19;100646.47;;;19.83;100.00
45275;BME280;31019;43.780;25.948;2023-11-21T11:49:58;100640.50;;;20.52;100.00
45275;BME280;31019;43.780;25.948;2023-11-21T11:52:36;100633.47;;;20.62;100.00
45275;BME280;31019;43.780;25.948;2023-11-21T11:55:05;100642.34;;;19.34;100.00
45275;BME280;31019;43.780;25.948;2023-11-21T11:57:34;100638.09;;;20.15;100.00
45275;BME280;31019;43.780;25.948;2023-11-21T12:00:32;100639.13;;;20.60;100.00
45275;BME280;31019;43.780;25.948;2023-11-21T12:03:25;100636.25;;;21.06;96.16
45275;BME280;31019;43.780;25.948;2023-11-21T12:05:54;100634.44;;;21.46;93.78
45275;BME280;31019;43.780;25.948;2023-11-21T12:08:23;100622.91;;;22.57;80.11
45275;BME280;31019;43.780;25.948;2023-11-21T12:11:21;100620.88;;;23.86;72.56
45275;BME280;31019;43.780;25.948;2023-11-21T12:14:30;100609.88;;;24.93;63.14
45275;BME280;31019;43.780;25.948;2023-11-21T12:17:20;100602.06;;;24.09;63.99
45275;BME280;31019;43.780;25.948;2023-11-21T12:19:49;100597.72;;;24.08;63.49
45275;BME280;31019;43.780;25.948;2023-11-21T12:22:19;100594.34;;;23.13;66.48
45275;BME280;31019;43.780;25.948;2023-11-21T12:25:01;100600.84;;;21.13;78.87
45275;BME280;31019;43.780;25.948;2023-11-21T12:27:29;100599.81;;;19.31;89.88
45275;BME280;31019;43.780;25.948;2023-11-21T12:29:56;100598.16;;;19.20;96.65
45275;BME280;31019;43.780;25.948;2023-11-21T12:32:23;100588.09;;;18.85;100.00
45275;BME280;31019;43.780;25.948;2023-11-21T12:34:51;100591.53;;;18.22;100.00
45275;BME280;31019;43.780;25.948;2023-11-21T12:37:19;100584.78;;;17.50;100.00
45275;BME280;31019;43.780;25.948;2023-11-21T12:39:46;100575.94;;;17.55;100.00
45275;BME280;31019;43.780;25.948;2023-11-21T12:42:13;100575.94;;;17.23;100.00
45275;BME280;31019;43.780;25.948;2023-11-21T12:44:40;100568.47;;;17.03;100.00
45275;BME280;31019;43.780;25.948;2023-11-21T12:47:10;100563.66;;;16.78;100.00
45275;BME280;31019;43.780;25.948;2023-11-21T12:49:40;100564.81;;;16.65;100.00
45275;BME280;31019;43.780;25.948;2023-11-21T12:52:12;100563.84;;;16.32;100.00
45275;BME280;31019;43.780;25.948;2023-11-21T12:54:41;100557.50;;;16.38;100.00
45275;BME280;31019;43.780;25.948;2023-11-21T12:57:10;100557.63;;;16.48;100.00
45275;BME280;31019;43.780;25.948;2023-11-21T12:59:38;100558.31;;;16.39;100.00
45275;BME280;31019;43.780;25.948;2023-11-21T13:02:08;100558.31;;;16.61;100.00
45275;BME280;31019;43.780;25.948;2023-11-21T13:04:38;100549.16;;;16.57;100.00
45275;BME280;31019;43.780;25.948;2023-11-21T13:07:05;100558.72;;;16.31;100.00
45275;BME280;31019;43.780;25.948;2023-11-21T13:09:42;100553.50;;;16.41;100.00
45275;BME280;31019;43.780;25.948;2023-11-21T13:12:09;100551.13;;;16.22;100.00
45275;BME280;31019;43.780;25.948;2023-11-21T13:14:39;100553.88;;;16.93;100.00
45275;BME280;31019;43.780;25.948;2023-11-21T13:17:06;100555.19;;;16.91;100.00
45275;BME280;31019;43.780;25.948;2023-11-21T13:19:35;100540.91;;;17.07;100.00
45275;BME280;31019;43.780;25.948;2023-11-21T13:22:02;100536.91;;;17.42;100.00
45275;BME280;31019;43.780;25.948;2023-11-21T13:24:35;100543.72;;;17.23;100.00
45275;BME280;31019;43.780;25.948;2023-11-21T13:27:09;100543.16;;;16.93;100.00
45275;BME280;31019;43.780;25.948;2023-11-21T13:29:36;100544.16;;;16.65;100.00
45275;BME280;31019;43.780;25.948;2023-11-21T13:32:03;100545.28;;;16.69;100.00